Terminal Aerodrome Forecast
Issued by NWS

Home | Current Version | Previous Version | Graphics & Text | Print | Product List | Glossary On
Versions: 1 2 3 4 5 6 7 8 9 10 11 12 13 14 15 16 17
000
FTUS43 KIWX 211700
TAFSBN
TAF
KSBN 211737Z 2118/2218 22006KT P6SM SCT150
     FM220800 18012KT P6SM -FZRA OVC025 WS020/22055KT
     FM221200 20012KT P6SM -RA OVC015 WS020/22055KT=

USA.gov is the U.S. government's official web portal to all federal, state and local government web resources and services.